Time;durP1;ratioP1;P1;durP2;ratioP2;P2;SDS_P1;SDS_P2;PMS_P1;PMS_P2;Temp;Humidity;BMP_temperature;BMP_pressure;BME280_temperature;BME280_humidity;BME280_pressure;Samples;Min_cycle;Max_cycle;Signal;HPM_P1;HPM_P2
2021/10/28 00:12:13;;;;;;;36.40;13.88;;;;;;;4.13;100.00;98038.59;4967691;28;20062;-68
2021/10/28 00:14:42;;;;;;;34.25;11.05;;;;;;;3.89;100.00;98043.47;4967629;28;20532;-70
2021/10/28 00:17:11;;;;;;;28.23;12.30;;;;;;;4.15;100.00;98047.34;4967533;28;20074;-71
2021/10/28 00:19:40;;;;;;;19.50;9.52;;;;;;;4.15;100.00;98061.06;4966564;28;20060;-70
2021/10/28 00:22:08;;;;;;;24.85;11.00;;;;;;;4.21;100.00;98065.31;4967791;28;20066;-69
2021/10/28 00:24:35;;;;;;;17.55;8.68;;;;;;;4.24;100.00;98051.00;4968222;28;20393;-70
2021/10/28 00:27:02;;;;;;;17.52;7.88;;;;;;;4.33;100.00;98049.16;4967647;28;20473;-69
2021/10/28 00:29:29;;;;;;;18.13;7.90;;;;;;;3.78;100.00;97932.41;4967584;28;20513;-68
2021/10/28 00:31:56;;;;;;;17.92;7.47;;;;;;;4.11;100.00;97985.22;4966133;28;20047;-70
2021/10/28 00:34:24;;;;;;;16.17;7.85;;;;;;;4.52;100.00;98033.41;4967569;28;20066;-70
2021/10/28 00:36:55;;;;;;;13.18;7.38;;;;;;;4.55;100.00;98041.00;4965928;28;20058;-69
2021/10/28 00:39:22;;;;;;;19.33;8.15;;;;;;;4.46;100.00;98036.56;4967572;28;20526;-69
2021/10/28 00:41:49;;;;;;;18.52;8.05;;;;;;;4.49;100.00;98031.28;4967757;28;20065;-70
2021/10/28 00:44:16;;;;;;;13.18;7.18;;;;;;;4.60;100.00;98027.19;4967407;28;20113;-70
2021/10/28 00:46:43;;;;;;;17.88;8.90;;;;;;;3.84;100.00;97909.28;4964962;28;20068;-70
2021/10/28 00:49:12;;;;;;;14.15;7.78;;;;;;;4.30;100.00;98058.00;4965920;28;20078;-70
2021/10/28 00:51:41;;;;;;;18.35;7.65;;;;;;;4.38;100.00;98005.19;4966730;28;20541;-69
2021/10/28 00:54:13;;;;;;;15.25;8.35;;;;;;;4.37;100.00;97989.84;4967443;28;20066;-69
2021/10/28 00:56:43;;;;;;;15.60;7.47;;;;;;;4.61;100.00;98012.38;4966767;28;20062;-70
2021/10/28 00:59:11;;;;;;;16.85;7.82;;;;;;;4.48;100.00;98013.19;4967270;28;20062;-69
2021/10/28 01:01:38;;;;;;;17.98;8.45;;;;;;;4.54;100.00;98009.22;4967299;28;20437;-69
2021/10/28 01:04:06;;;;;;;15.93;8.25;;;;;;;4.18;100.00;97963.66;4967562;28;20505;-69
2021/10/28 01:06:34;;;;;;;18.73;8.07;;;;;;;4.54;100.00;98006.47;4966421;28;20058;-70
2021/10/28 01:09:03;;;;;;;17.13;8.48;;;;;;;4.54;100.00;98006.47;4967209;28;20063;-70
2021/10/28 01:11:30;;;;;;;16.20;6.93;;;;;;;4.56;100.00;98004.25;4966712;28;20051;-70
2021/10/28 01:13:58;;;;;;;14.48;7.20;;;;;;;4.53;100.00;97999.38;4965658;28;20051;-70
2021/10/28 01:16:25;;;;;;;17.90;8.13;;;;;;;4.49;100.00;97998.34;4966321;28;20054;-70
2021/10/28 01:18:53;;;;;;;13.40;8.13;;;;;;;4.57;100.00;97996.81;4965632;28;20090;-68
2021/10/28 01:21:20;;;;;;;14.18;7.35;;;;;;;4.17;100.00;97943.66;4966983;28;20051;-70
2021/10/28 01:23:47;;;;;;;14.30;6.93;;;;;;;4.17;100.00;97940.13;4965423;28;20058;-70
2021/10/28 01:26:15;;;;;;;12.63;6.90;;;;;;;4.53;100.00;98002.13;4966333;28;20051;-70
2021/10/28 01:29:00;;;;;;;20.33;7.80;;;;;;;4.56;100.00;98004.25;4965186;28;20066;-69
2021/10/28 01:31:31;;;;;;;12.50;7.10;;;;;;;4.61;100.00;98006.88;4966035;28;20063;-69
2021/10/28 01:33:59;;;;;;;26.02;13.45;;;;;;;4.30;100.00;97962.00;4966403;28;20057;-69
2021/10/28 01:36:27;;;;;;;23.38;10.60;;;;;;;4.59;100.00;98009.09;4966559;28;20082;-69
2021/10/28 01:38:55;;;;;;;18.15;9.32;;;;;;;4.32;100.00;97965.28;4966548;28;20061;-68
2021/10/28 01:41:25;;;;;;;14.75;8.43;;;;;;;4.50;100.00;98004.66;4965241;28;20161;-69
2021/10/28 01:43:55;;;;;;;15.25;8.07;;;;;;;4.49;100.00;98003.84;4965713;28;20142;-68
2021/10/28 01:46:22;;;;;;;16.92;7.60;;;;;;;4.45;100.00;97997.34;4965897;28;20524;-68
2021/10/28 01:48:49;;;;;;;14.70;7.32;;;;;;;4.24;100.00;97948.72;4964578;28;20462;-68
2021/10/28 01:51:23;;;;;;;17.30;8.82;;;;;;;4.49;100.00;98003.84;4965997;28;20073;-68
2021/10/28 01:53:50;;;;;;;18.95;8.25;;;;;;;4.45;100.00;98000.09;4965649;28;20090;-68
2021/10/28 01:56:17;;;;;;;15.35;7.32;;;;;;;4.39;100.00;98001.31;4965812;28;20442;-69
2021/10/28 01:58:44;;;;;;;15.15;7.72;;;;;;;4.39;100.00;98003.25;4965136;28;20061;-68
2021/10/28 02:01:10;;;;;;;20.63;8.40;;;;;;;4.23;100.00;97994.53;4965831;28;20088;-69
2021/10/28 02:03:37;;;;;;;16.40;7.18;;;;;;;4.29;100.00;98007.03;4964971;28;20054;-69
2021/10/28 02:06:04;;;;;;;19.10;8.20;;;;;;;3.86;100.00;97942.69;4965426;28;20054;-68
2021/10/28 02:08:31;;;;;;;13.50;7.05;;;;;;;4.37;100.00;98005.47;4965719;28;20043;-68
2021/10/28 02:10:57;;;;;;;17.38;7.95;;;;;;;4.36;100.00;98007.41;4965573;28;20051;-68
2021/10/28 02:13:24;;;;;;;13.95;7.35;;;;;;;4.30;100.00;98011.38;4964495;28;20054;-68
2021/10/28 02:15:51;;;;;;;16.52;7.70;;;;;;;4.23;100.00;98001.94;4965330;28;20522;-70
2021/10/28 02:18:19;;;;;;;19.23;9.55;;;;;;;4.22;100.00;98009.34;4964504;28;20050;-69
2021/10/28 02:20:46;;;;;;;19.27;9.35;;;;;;;4.15;100.00;97998.00;4965908;28;20061;-69
2021/10/28 02:23:13;;;;;;;19.13;8.80;;;;;;;4.14;100.00;98007.31;4965417;28;20061;-69
2021/10/28 02:25:39;;;;;;;20.30;9.43;;;;;;;3.80;100.00;97935.69;4965851;28;20404;-70
2021/10/28 02:28:06;;;;;;;18.75;9.32;;;;;;;4.15;100.00;98003.47;4965701;28;20078;-69
2021/10/28 02:30:33;;;;;;;26.05;11.80;;;;;;;4.08;100.00;98013.22;4965872;28;20542;-70
2021/10/28 02:33:00;;;;;;;18.40;10.40;;;;;;;3.94;100.00;98015.97;4965803;28;20066;-69
2021/10/28 02:35:27;;;;;;;22.05;11.73;;;;;;;3.88;100.00;98041.84;4964381;28;20054;-70
2021/10/28 02:37:54;;;;;;;19.48;10.18;;;;;;;3.83;100.00;98020.00;4965528;28;20143;-70
2021/10/28 02:40:20;;;;;;;24.40;10.60;;;;;;;3.83;100.00;98017.28;4965523;28;20502;-69
2021/10/28 02:42:47;;;;;;;24.52;10.05;;;;;;;3.70;100.00;97996.16;4965190;28;20055;-70
2021/10/28 02:45:14;;;;;;;18.35;9.85;;;;;;;3.96;100.00;98011.00;4963629;28;20054;-70
2021/10/28 02:47:41;;;;;;;20.50;10.40;;;;;;;3.93;100.00;98017.09;4963896;28;20051;-69
2021/10/28 02:50:08;;;;;;;18.45;9.55;;;;;;;3.44;100.00;97936.66;4963677;28;20062;-70
2021/10/28 02:52:35;;;;;;;19.70;10.68;;;;;;;3.96;100.00;98018.41;4965257;28;20437;-70
2021/10/28 02:55:04;;;;;;;21.90;11.07;;;;;;;3.96;100.00;98021.97;4965001;28;20065;-70
2021/10/28 02:57:31;;;;;;;21.38;10.30;;;;;;;3.88;100.00;98016.34;4964830;28;20536;-70
2021/10/28 02:59:58;;;;;;;22.55;10.65;;;;;;;3.33;100.00;97924.28;4965628;28;20450;-70
2021/10/28 03:02:25;;;;;;;22.58;10.02;;;;;;;3.88;100.00;98014.44;4945601;28;20062;-70
2021/10/28 03:04:54;;;;;;;21.42;9.57;;;;;;;3.89;100.00;98016.06;4945680;28;20070;-70
2021/10/28 03:07:20;;;;;;;21.23;9.85;;;;;;;3.92;100.00;98015.44;4945473;28;20051;-71
2021/10/28 03:09:47;;;;;;;23.08;9.20;;;;;;;3.97;100.00;98020.00;4943925;28;20055;-70
2021/10/28 03:12:14;;;;;;;20.48;10.25;;;;;;;3.94;100.00;98018.69;4945349;28;20055;-69
2021/10/28 03:14:45;;;;;;;19.70;9.77;;;;;;;3.94;100.00;98024.19;4946014;28;20051;-70
2021/10/28 03:27:47;;;;;;;24.95;11.65;;;;;;;3.77;100.00;98043.16;4945988;28;20389;-69
2021/10/28 03:30:14;;;;;;;25.63;11.23;;;;;;;3.77;100.00;98039.59;4945826;28;20047;-69
2021/10/28 03:32:41;;;;;;;25.45;12.05;;;;;;;3.79;100.00;98027.22;4944916;28;20051;-69
2021/10/28 03:35:11;;;;;;;25.05;12.18;;;;;;;3.40;100.00;97977.53;4945744;28;20119;-69
2021/10/28 03:37:51;;;;;;;32.08;14.02;;;;;;;3.70;100.00;98039.19;4943601;29;20078;-68
2021/10/28 03:43:19;;;;;;;30.27;15.05;;;;;;;3.62;100.00;98037.13;4945616;28;20055;-68
2021/10/28 04:20:51;;;;;;;22.52;11.00;;;;;;;3.27;100.00;98065.94;4964388;28;20053;-67
2021/10/28 04:28:55;;;;;;;40.83;17.75;;;;;;;2.82;100.00;97968.13;4967312;28;20055;-68
2021/10/28 04:31:24;;;;;;;40.55;18.10;;;;;;;3.37;100.00;98057.53;4967357;28;20506;-68
2021/10/28 04:33:52;;;;;;;39.47;18.35;;;;;;;3.35;100.00;98059.75;4966347;28;20610;-70
2021/10/28 04:36:19;;;;;;;40.88;17.77;;;;;;;3.11;100.00;98015.28;4967192;28;20051;-67
2021/10/28 04:38:45;;;;;;;40.63;19.13;;;;;;;3.31;100.00;98058.75;4966920;28;20061;-68
2021/10/28 04:41:12;;;;;;;39.80;17.70;;;;;;;3.30;100.00;98061.78;4967092;28;20494;-68
2021/10/28 04:43:39;;;;;;;40.75;18.00;;;;;;;3.29;100.00;98055.50;4966413;28;20059;-69
2021/10/28 04:46:05;;;;;;;39.90;17.60;;;;;;;3.05;100.00;98032.91;4967809;28;20058;-68
2021/10/28 04:48:32;;;;;;;36.42;16.95;;;;;;;3.37;100.00;98057.53;4965732;28;20055;-69
2021/10/28 04:50:59;;;;;;;33.38;14.07;;;;;;;3.36;100.00;98069.63;4967342;28;20057;-69
2021/10/28 04:53:28;;;;;;;22.73;11.10;;;;;;;3.36;100.00;98072.38;4967426;28;20066;-69
2021/10/28 04:55:55;;;;;;;17.13;9.63;;;;;;;2.80;100.00;97970.34;4967472;28;20059;-69
2021/10/28 04:58:23;;;;;;;28.80;13.23;;;;;;;3.41;100.00;98066.81;4966664;28;20444;-70
2021/10/28 05:00:51;;;;;;;33.78;15.25;;;;;;;3.50;100.00;98088.81;4966997;28;20540;-69
2021/10/28 05:03:18;;;;;;;26.98;12.90;;;;;;;3.03;100.00;98037.84;4966368;28;20067;-68
2021/10/28 05:05:45;;;;;;;26.02;12.35;;;;;;;2.98;100.00;98005.09;4965670;28;20496;-68
2021/10/28 05:08:12;;;;;;;21.38;10.38;;;;;;;3.36;100.00;98066.88;4965386;28;20055;-68
2021/10/28 05:10:43;;;;;;;24.83;11.68;;;;;;;3.54;100.00;98070.69;4965268;28;20047;-69
2021/10/28 05:13:13;;;;;;;25.58;12.02;;;;;;;3.58;100.00;98077.19;4966753;28;20074;-68
2021/10/28 05:15:45;;;;;;;34.78;17.05;;;;;;;3.75;100.00;98072.78;4966335;28;20063;-69
2021/10/28 05:18:13;;;;;;;36.07;14.97;;;;;;;3.59;100.00;98076.88;4965422;28;20055;-68
2021/10/28 05:20:40;;;;;;;38.25;16.65;;;;;;;3.67;100.00;98084.41;4965086;28;20518;-68
2021/10/28 05:23:07;;;;;;;43.35;17.75;;;;;;;3.73;99.43;98088.69;4967678;28;20414;-68
2021/10/28 05:25:34;;;;;;;38.15;18.05;;;;;;;0.05;99.51;97482.00;4965716;28;20055;-69
2021/10/28 05:28:01;;;;;;;39.45;16.73;;;;;;;3.85;100.00;98107.41;4966468;28;20054;-69
2021/10/28 05:30:29;;;;;;;35.15;16.80;;;;;;;3.67;98.90;98070.72;4966349;28;20050;-70
2021/10/28 05:32:56;;;;;;;38.63;17.50;;;;;;;3.86;99.20;98087.91;4965045;28;20396;-69
2021/10/28 05:35:23;;;;;;;30.27;14.63;;;;;;;4.04;98.87;98094.44;4966472;28;20051;-69
2021/10/28 05:37:51;;;;;;;27.83;14.93;;;;;;;4.13;99.77;98098.09;4965140;28;20386;-68
2021/10/28 05:40:18;;;;;;;26.63;12.32;;;;;;;4.26;99.20;98098.13;4946311;28;20141;-70
2021/10/28 05:42:48;;;;;;;27.30;13.85;;;;;;;4.02;96.37;98092.00;4965581;28;20383;-67
2021/10/28 05:45:16;;;;;;;31.08;14.10;;;;;;;4.33;95.54;98104.00;4964693;28;20058;-68
2021/10/28 05:47:43;;;;;;;23.75;12.85;;;;;;;4.44;96.45;98110.91;4966355;28;20053;-69
2021/10/28 05:50:22;;;;;;;32.45;15.75;;;;;;;4.60;97.23;98128.72;4964376;28;20062;-68
2021/10/28 05:52:51;;;;;;;33.90;15.43;;;;;;;4.60;96.70;98081.25;4962747;28;20058;-63
2021/10/28 05:55:20;;;;;;;23.90;12.48;;;;;;;3.60;96.58;97886.78;4960653;28;20058;-62
2021/10/28 05:57:48;;;;;;;43.75;21.25;;;;;;;5.01;96.46;98081.97;4965889;28;20059;-61
2021/10/28 06:00:17;;;;;;;30.15;12.95;;;;;;;5.37;96.65;98123.19;4965928;28;20437;-65
2021/10/28 06:02:43;;;;;;;35.03;16.30;;;;;;;5.60;95.52;98122.06;4965510;28;20058;-61
2021/10/28 06:05:11;;;;;;;35.83;17.23;;;;;;;5.40;93.97;98089.59;4965364;28;20486;-61
2021/10/28 06:07:39;;;;;;;44.72;20.25;;;;;;;5.79;92.33;98119.94;4964479;28;20054;-64
2021/10/28 06:10:08;;;;;;;43.35;17.88;;;;;;;5.88;92.95;98123.63;4965389;28;20047;-67
2021/10/28 06:12:38;;;;;;;43.42;16.52;;;;;;;6.06;92.75;98122.56;4964169;28;20601;-66
2021/10/28 06:15:07;;;;;;;31.98;14.90;;;;;;;6.34;92.28;98124.03;4965397;28;20053;-61
2021/10/28 06:17:38;;;;;;;31.17;13.82;;;;;;;6.41;91.38;98116.13;4964196;28;20047;-64
2021/10/28 06:20:05;;;;;;;27.98;13.07;;;;;;;6.66;91.10;98123.69;4965361;28;20054;-62
2021/10/28 06:22:32;;;;;;;19.67;10.57;;;;;;;6.45;89.25;98089.59;4965261;28;20078;-64
2021/10/28 06:24:59;;;;;;;24.95;10.95;;;;;;;6.89;89.18;98132.66;4965383;28;20142;-63
2021/10/28 06:27:26;;;;;;;21.83;11.73;;;;;;;7.10;89.49;98126.22;4963564;28;20055;-60
2021/10/28 06:29:52;;;;;;;15.63;10.27;;;;;;;7.29;87.46;98132.25;4963766;28;20054;-63
2021/10/28 06:32:19;;;;;;;105.53;41.40;;;;;;;7.02;87.04;98049.88;4965196;28;20061;-59
2021/10/28 06:34:47;;;;;;;54.97;24.05;;;;;;;7.71;84.92;98116.88;4964641;28;20133;-62
2021/10/28 06:37:15;;;;;;;31.77;14.35;;;;;;;7.84;85.44;98118.63;4962218;28;20055;-61
2021/10/28 06:39:43;;;;;;;32.15;14.80;;;;;;;7.98;84.14;98121.22;4964365;28;20081;-62
2021/10/28 06:42:13;;;;;;;27.85;12.88;;;;;;;8.06;83.44;98128.66;4964934;28;20066;-61
2021/10/28 06:44:43;;;;;;;26.15;12.95;;;;;;;8.17;82.82;98121.66;4964409;28;20051;-60
2021/10/28 06:47:10;;;;;;;26.15;12.18;;;;;;;8.30;82.44;98118.72;4960758;28;20061;-60
2021/10/28 06:49:41;;;;;;;20.27;11.38;;;;;;;8.43;81.74;98127.94;4959350;28;20141;-62
2021/10/28 06:52:12;;;;;;;23.38;13.18;;;;;;;8.60;81.55;98122.38;4964948;28;20172;-60
2021/10/28 06:54:42;;;;;;;25.50;13.70;;;;;;;8.19;81.60;98055.91;4961859;28;20510;-63
2021/10/28 07:02:50;;;;;;;21.33;11.80;;;;;;;9.09;77.99;98107.78;4964060;28;20052;-62
2021/10/28 07:05:17;;;;;;;26.20;12.90;;;;;;;8.92;78.32;98041.56;4964196;28;20068;-64
2021/10/28 07:07:43;;;;;;;26.48;14.40;;;;;;;9.02;77.41;98016.31;4963983;28;20518;-67
2021/10/28 07:10:14;;;;;;;22.63;13.52;;;;;;;9.83;76.11;98127.25;4962788;28;20051;-61
2021/10/28 07:12:54;;;;;;;23.65;12.63;;;;;;;8.89;76.18;97953.84;4964818;28;20461;-65
2021/10/28 07:15:27;;;;;;;26.00;11.00;;;;;;;9.97;75.43;98127.78;4961389;28;20073;-61
2021/10/28 07:18:15;;;;;;;24.48;11.80;;;;;;;9.71;77.15;98100.31;4965142;28;20066;-63
2021/10/28 08:22:08;;;;;;;22.15;11.10;;;;;;;13.61;65.74;98076.72;4967301;28;20134;-63
2021/10/28 08:28:41;;;;;;;15.43;8.30;;;;;;;13.12;64.57;97971.88;4967389;28;20457;-70
2021/10/28 08:30:10;;;;;;;12.88;8.10;;;;;;;14.14;63.52;98077.00;4948792;28;20070;-60
2021/10/28 08:32:37;;;;;;;11.75;7.60;;;;;;;14.29;63.19;98063.00;4946705;28;20051;-61
2021/10/28 08:35:05;;;;;;;7.45;5.20;;;;;;;14.26;58.07;98090.81;4948288;28;20482;-61
2021/10/28 08:40:10;;;;;;;10.43;5.88;;;;;;;14.23;58.87;98074.78;4947731;28;20063;-67
2021/10/28 08:42:38;;;;;;;10.80;5.50;;;;;;;14.30;58.64;98063.81;4947461;28;20051;-72
2021/10/28 08:45:06;;;;;;;6.78;4.60;;;;;;;14.43;56.34;98051.34;4947527;28;20169;-65
2021/10/28 08:47:33;;;;;;;6.05;4.55;;;;;;;14.56;57.23;98052.75;4947739;28;20242;-66
2021/10/28 08:50:07;;;;;;;6.32;5.22;;;;;;;14.09;55.61;97963.06;4948386;29;20404;-70
2021/10/28 08:53:05;;;;;;;11.20;5.18;;;;;;;14.32;55.05;97961.13;4947865;29;20051;-66
2021/10/28 08:55:34;;;;;;;8.43;5.72;;;;;;;14.72;53.98;98006.00;4947194;28;20051;-70
2021/10/28 09:27:05;;;;;;;9.90;5.90;;;;;;;14.78;50.97;97946.75;4946937;29;20632;-60
2021/10/28 09:29:20;;;;;;;6.63;5.00;;;;;;;15.16;49.58;97965.22;4948440;28;20066;-61
2021/10/28 09:32:04;;;;;;;6.85;4.97;;;;;;;15.77;49.97;98027.13;4945833;29;20066;-60
2021/10/28 09:51:09;;;;;;;4.70;3.70;;;;;;;16.24;47.24;98002.09;4946921;28;20059;-58
2021/10/28 09:54:02;;;;;;;7.20;4.30;;;;;;;16.30;47.31;98002.53;4946658;28;20055;-59
2021/10/28 09:59:48;;;;;;;8.18;4.55;;;;;;;16.13;46.15;97984.41;4946278;28;20066;-59
2021/10/28 10:02:40;;;;;;;8.57;4.38;;;;;;;16.27;45.10;97987.34;4971195;28;20070;-60
2021/10/28 10:05:17;;;;;;;8.85;4.35;;;;;;;15.81;43.82;97944.13;4965643;28;20059;-70
2021/10/28 10:07:49;;;;;;;6.20;4.07;;;;;;;15.49;45.08;97925.41;4964254;28;20117;-69
2021/10/28 10:10:17;;;;;;;4.90;3.92;;;;;;;15.96;44.93;97976.66;4965386;28;20054;-70
2021/10/28 10:12:46;;;;;;;6.57;4.20;;;;;;;15.87;44.44;97976.13;4965129;28;20054;-69
2021/10/28 10:15:15;;;;;;;4.95;3.22;;;;;;;15.77;45.65;97967.63;4964740;28;20062;-69
2021/10/28 10:17:49;;;;;;;7.13;3.42;;;;;;;16.21;43.94;97963.72;4965636;28;20063;-58
2021/10/28 10:20:18;;;;;;;;;;;;;;;16.45;43.55;97965.97;4965496;28;20489;-58
2021/10/28 10:23:21;;;;;;;5.50;3.53;;;;;;;16.57;43.33;97965.69;4964336;28;20044;-60
2021/10/28 10:25:59;;;;;;;4.65;3.60;;;;;;;16.19;43.67;97966.09;4964947;28;20482;-60
2021/10/28 12:46:22;;;;;;;4.90;3.83;;;;;;;16.74;39.85;97754.34;4966838;28;20137;-66
2021/10/28 13:03:02;;;;;;;4.70;3.38;;;;;;;17.08;40.64;97806.06;4966975;28;20606;-70
2021/10/28 14:38:45;;;;;;;9.68;4.78;;;;;;;15.61;45.27;97783.50;4965812;28;20166;-72
2021/10/28 15:31:05;;;;;;;5.85;3.65;;;;;;;13.01;54.35;97848.47;4964900;28;20050;-66
2021/10/28 15:36:16;;;;;;;4.68;3.22;;;;;;;12.87;53.97;97851.69;4964711;28;20065;-69
2021/10/28 15:38:57;;;;;;;9.52;4.07;;;;;;;12.82;54.83;97849.22;4963229;28;20062;-69
2021/10/28 16:22:43;;;;;;;73.28;35.60;;;;;;;11.39;65.99;97893.69;4967491;28;20051;-68
2021/10/28 16:25:10;;;;;;;80.97;40.67;;;;;;;11.40;67.02;97915.53;4967721;28;20046;-68
2021/10/28 16:27:37;;;;;;;91.70;40.55;;;;;;;11.26;67.06;97908.75;4967803;28;20437;-67
2021/10/28 16:30:05;;;;;;;81.35;37.80;;;;;;;11.12;67.63;97913.91;4966185;28;20059;-69
2021/10/28 16:32:32;;;;;;;78.20;35.25;;;;;;;11.06;67.80;97909.78;4967813;28;20047;-67
2021/10/28 16:34:59;;;;;;;78.18;35.90;;;;;;;10.99;68.43;97910.38;4967315;28;20078;-70
2021/10/28 16:37:28;;;;;;;84.57;37.22;;;;;;;10.61;69.59;97865.69;4966581;28;20057;-70
2021/10/28 16:39:55;;;;;;;80.80;35.80;;;;;;;10.90;69.18;97917.22;4966023;28;20081;-69
2021/10/28 16:42:22;;;;;;;75.93;37.30;;;;;;;10.87;69.82;97923.47;4967670;28;20062;-69
2021/10/28 16:44:53;;;;;;;89.30;39.00;;;;;;;10.73;70.37;97923.03;4967520;28;20592;-68
2021/10/28 16:47:20;;;;;;;84.60;39.72;;;;;;;10.63;69.74;97927.94;4967363;28;20071;-70
2021/10/28 16:49:48;;;;;;;71.03;37.10;;;;;;;10.38;70.52;97929.13;4965828;28;20156;-69
2021/10/28 16:52:14;;;;;;;68.18;33.92;;;;;;;10.23;71.72;97910.41;4967698;28;20061;-70
2021/10/28 16:54:41;;;;;;;59.85;24.95;;;;;;;10.38;71.58;97923.56;4966417;28;20047;-71
2021/10/28 16:57:08;;;;;;;50.15;23.38;;;;;;;10.25;72.53;97946.06;4967707;28;20054;-68
2021/10/28 16:59:34;;;;;;;50.45;21.83;;;;;;;10.14;73.96;97942.97;4967196;28;20058;-69
2021/10/28 17:02:02;;;;;;;42.22;22.10;;;;;;;10.16;73.68;97940.63;4966942;28;20407;-70
2021/10/28 17:04:30;;;;;;;28.77;14.15;;;;;;;9.97;75.38;97940.38;4966754;28;20057;-68
2021/10/28 17:06:56;;;;;;;30.88;14.18;;;;;;;9.89;76.09;97937.72;4966769;28;20138;-69
2021/10/28 17:09:23;;;;;;;31.77;13.07;;;;;;;9.85;76.99;97936.75;4967316;28;20058;-67
2021/10/28 17:11:51;;;;;;;22.45;12.38;;;;;;;9.70;77.38;97946.56;4965827;28;20617;-69
2021/10/28 17:14:17;;;;;;;30.83;14.82;;;;;;;9.30;78.41;97892.97;4965785;28;20129;-70
2021/10/28 17:16:46;;;;;;;38.45;18.48;;;;;;;9.62;78.90;97947.47;4966476;28;20146;-69
2021/10/28 17:19:16;;;;;;;33.20;17.70;;;;;;;9.50;78.84;97936.34;4965398;28;20059;-69
2021/10/28 17:21:45;;;;;;;29.55;13.75;;;;;;;9.03;79.41;97899.09;4966645;28;20055;-69
2021/10/28 17:24:33;;;;;;;25.52;13.25;;;;;;;8.68;79.95;97848.06;4966590;28;20502;-68
2021/10/28 17:27:00;;;;;;;29.80;15.63;;;;;;;9.29;80.10;97938.38;4965638;28;20054;-68
2021/10/28 17:29:27;;;;;;;23.67;12.65;;;;;;;9.27;80.86;97951.72;4966087;28;20138;-68
2021/10/28 17:31:56;;;;;;;17.70;8.52;;;;;;;8.99;82.36;97958.97;4966255;28;20050;-68
2021/10/28 17:34:25;;;;;;;17.38;9.10;;;;;;;9.07;81.81;97952.56;4967415;28;20574;-69
2021/10/28 17:36:56;;;;;;;21.33;8.98;;;;;;;9.06;81.74;97967.50;4966675;28;20054;-69
2021/10/28 17:39:24;;;;;;;20.80;10.13;;;;;;;8.98;82.12;97955.38;4966422;28;20069;-68
2021/10/28 17:41:52;;;;;;;24.92;11.52;;;;;;;8.94;82.78;97950.88;4966178;28;20068;-68
2021/10/28 17:44:21;;;;;;;22.42;11.82;;;;;;;8.75;84.26;97954.13;4966439;28;20053;-69
2021/10/28 17:46:48;;;;;;;30.50;12.70;;;;;;;8.86;83.96;97960.03;4965921;28;20505;-70
2021/10/28 17:49:15;;;;;;;25.95;12.93;;;;;;;8.80;83.69;97956.66;4964763;28;20057;-69
2021/10/28 17:51:42;;;;;;;25.08;12.75;;;;;;;8.58;84.82;97942.38;4966326;28;20050;-68
2021/10/28 17:54:10;;;;;;;28.48;14.13;;;;;;;8.62;84.47;97937.78;4966336;28;20053;-68
2021/10/28 17:56:39;;;;;;;25.60;13.25;;;;;;;8.62;84.59;97957.94;4966452;28;20051;-69
2021/10/28 17:59:07;;;;;;;32.60;16.10;;;;;;;8.55;85.34;97945.81;4966053;28;20047;-69
2021/10/28 18:01:36;;;;;;;37.90;17.27;;;;;;;8.49;86.01;97956.22;4965520;28;20065;-68
2021/10/28 18:04:03;;;;;;;34.97;15.73;;;;;;;8.34;87.47;97950.47;4965941;28;20054;-69
2021/10/28 18:06:31;;;;;;;33.25;14.27;;;;;;;8.28;87.09;97954.59;4965980;28;20505;-72
2021/10/28 18:09:01;;;;;;;28.63;14.48;;;;;;;8.15;88.49;97950.88;4965307;28;20442;-70
2021/10/28 18:11:28;;;;;;;30.02;15.57;;;;;;;7.87;87.90;97915.81;4966384;28;20479;-72
2021/10/28 18:13:59;;;;;;;21.67;12.75;;;;;;;8.29;87.08;97939.63;4966358;28;20065;-70
2021/10/28 18:16:28;;;;;;;20.55;11.93;;;;;;;7.66;87.68;97877.94;4964296;28;20054;-70
2021/10/28 18:18:57;;;;;;;25.05;14.25;;;;;;;8.06;89.00;97952.06;4966069;28;20141;-71
2021/10/28 18:21:25;;;;;;;34.20;15.32;;;;;;;7.92;88.50;97921.94;4965227;28;20268;-71
2021/10/28 18:23:57;;;;;;;19.45;11.82;;;;;;;7.71;87.99;97888.75;4966017;28;20822;-73
2021/10/28 18:26:24;;;;;;;20.98;10.88;;;;;;;7.96;88.60;97957.94;4963945;28;20059;-69
2021/10/28 18:28:55;;;;;;;34.15;15.45;;;;;;;8.00;88.60;97950.66;4965745;28;20063;-69
2021/10/28 18:31:22;;;;;;;29.80;15.25;;;;;;;7.58;88.19;97953.22;4965708;28;20411;-71
2021/10/28 18:33:50;;;;;;;30.85;14.48;;;;;;;7.63;87.98;97911.66;4965301;28;20059;-71
2021/10/28 18:36:17;;;;;;;26.33;11.93;;;;;;;7.52;88.41;97898.59;4964935;28;20076;-70
2021/10/28 18:38:46;;;;;;;20.10;11.13;;;;;;;7.93;88.70;97975.16;4964006;28;20050;-70
2021/10/28 18:41:14;;;;;;;34.25;14.88;;;;;;;7.93;88.99;97975.16;4962684;28;20445;-70
2021/10/28 18:43:43;;;;;;;18.80;9.23;;;;;;;7.33;91.15;97922.97;4964084;28;20121;-71
2021/10/28 18:46:11;;;;;;;21.23;9.30;;;;;;;7.58;92.04;97985.50;4963835;28;20054;-71
2021/10/28 18:48:38;;;;;;;17.45;9.25;;;;;;;7.69;92.30;97976.56;4965461;28;20074;-70
2021/10/28 18:51:05;;;;;;;20.45;10.07;;;;;;;7.12;92.10;97911.81;4965730;28;20055;-70
2021/10/28 18:53:38;;;;;;;29.58;12.48;;;;;;;7.76;91.58;97983.50;4965573;28;20544;-71
2021/10/28 18:56:05;;;;;;;23.35;13.45;;;;;;;7.84;90.12;97979.91;4965233;28;20055;-72
2021/10/28 18:58:33;;;;;;;27.10;15.20;;;;;;;7.03;90.18;97861.47;4965314;28;20060;-70
2021/10/28 19:01:00;;;;;;;25.23;13.65;;;;;;;7.72;90.33;97980.59;4964693;28;20062;-70
2021/10/28 19:03:28;;;;;;;30.33;14.38;;;;;;;6.97;91.15;97909.56;4963596;28;20142;-67
2021/10/28 19:05:56;;;;;;;28.48;13.50;;;;;;;7.64;91.08;97978.66;4965035;28;20589;-68
2021/10/28 19:08:23;;;;;;;38.65;15.02;;;;;;;7.55;91.50;97964.91;4965422;28;20047;-70
2021/10/28 19:10:52;;;;;;;57.60;23.95;;;;;;;7.28;91.04;97943.25;4965147;28;20051;-72
2021/10/28 19:13:19;;;;;;;37.90;17.83;;;;;;;7.15;91.71;97926.88;4965120;28;20521;-71
2021/10/28 19:15:46;;;;;;;30.17;12.70;;;;;;;7.62;90.47;97984.50;4964564;28;20062;-71
2021/10/28 19:18:14;;;;;;;37.83;13.70;;;;;;;7.58;90.19;97986.31;4965716;28;20085;-73
2021/10/28 19:20:40;;;;;;;32.05;13.85;;;;;;;7.47;90.34;97996.06;4964793;28;20054;-70
2021/10/28 19:23:07;;;;;;;25.70;11.60;;;;;;;6.97;90.94;97911.53;4963503;28;20959;-70
2021/10/28 19:25:35;;;;;;;23.35;10.88;;;;;;;7.27;90.39;97952.63;4963352;28;20058;-72
2021/10/28 19:28:02;;;;;;;25.00;12.88;;;;;;;7.40;90.90;97995.75;4965126;28;20065;-68
2021/10/28 19:30:35;;;;;;;30.63;14.43;;;;;;;7.14;91.84;97948.13;4964894;28;20081;-69
2021/10/28 19:33:11;;;;;;;38.17;16.13;;;;;;;7.37;91.71;97999.16;4965207;28;20205;-70
2021/10/28 19:35:41;;;;;;;29.52;14.93;;;;;;;6.75;91.68;97912.50;4964633;28;20053;-70
2021/10/28 19:41:06;;;;;;;26.17;11.60;;;;;;;7.32;91.50;97998.50;4964409;28;20438;-70
2021/10/28 19:46:19;;;;;;;23.30;11.85;;;;;;;7.16;93.23;98005.66;4964851;28;20055;-70
2021/10/28 19:48:47;;;;;;;24.73;11.63;;;;;;;7.13;92.96;97985.06;4963755;28;20141;-69
2021/10/28 19:51:15;;;;;;;23.17;11.32;;;;;;;6.57;91.89;97905.38;4964250;28;20055;-70
2021/10/28 19:53:45;;;;;;;22.27;11.25;;;;;;;7.13;92.32;98017.31;4968333;28;20055;-73
2021/10/28 19:56:14;;;;;;;21.00;11.25;;;;;;;7.11;92.21;98014.88;4966903;28;20057;-70
2021/10/28 19:58:47;;;;;;;20.60;12.15;;;;;;;6.94;94.68;98014.09;4966930;28;20148;-70
2021/10/28 20:14:54;;;;;;;24.13;11.57;;;;;;;6.73;97.00;98035.09;4968526;28;20054;-68
2021/10/28 20:20:14;;;;;;;22.73;12.13;;;;;;;6.67;97.41;98037.19;4967840;28;20054;-69
2021/10/28 20:22:44;;;;;;;20.30;9.93;;;;;;;6.72;96.67;98045.31;4967838;28;20058;-68
2021/10/28 20:25:14;;;;;;;24.88;11.15;;;;;;;6.17;96.11;97961.63;4966378;28;20059;-69
2021/10/28 20:27:42;;;;;;;24.48;11.85;;;;;;;6.48;96.50;98025.66;4968096;28;20069;-68
2021/10/28 20:30:09;;;;;;;26.98;12.38;;;;;;;6.58;97.39;98039.13;4968077;28;20058;-68
2021/10/28 20:32:36;;;;;;;22.77;11.85;;;;;;;6.51;98.03;98044.28;4967571;28;20057;-69
2021/10/28 20:35:14;;;;;;;29.33;12.35;;;;;;;6.50;98.06;98037.16;4967771;28;20050;-66
2021/10/28 20:37:44;;;;;;;25.52;12.27;;;;;;;6.41;98.20;98044.59;4967617;28;20065;-67
2021/10/28 20:40:12;;;;;;;29.98;13.82;;;;;;;6.44;97.94;98060.44;4967925;28;20057;-67